Time;durP1;ratioP1;P1;durP2;ratioP2;P2;SDS_P1;SDS_P2;PMS_P1;PMS_P2;Temp;Humidity;BMP_temperature;BMP_pressure;BME280_temperature;BME280_humidity;BME280_pressure;Samples;Min_cycle;Max_cycle;Signal;HPM_P1;HPM_P2
2022/11/08 00:03:30;;;;;;;20.40;13.40;;;;;;;7.05;95.17;99573.66;435444;1283;214073;-67
2022/11/08 00:23:58;;;;;;;11.90;10.40;;;;;;;7.16;95.00;99587.23;435315;1284;145410;-66
2022/11/08 00:34:04;;;;;;;12.60;9.90;;;;;;;7.22;94.98;99585.19;435968;1284;142890;-64
2022/11/08 00:44:10;;;;;;;13.00;11.20;;;;;;;7.25;94.85;99590.39;435917;1283;142693;-64
2022/11/08 00:54:17;;;;;;;12.40;9.90;;;;;;;7.27;94.69;99588.91;435280;1277;142964;-64
2022/11/08 01:04:23;;;;;;;9.80;8.80;;;;;;;7.29;94.40;99587.61;435790;1284;145458;-64
2022/11/08 01:14:29;;;;;;;11.00;9.40;;;;;;;7.32;94.20;99589.04;435901;1277;142618;-64
2022/11/08 01:24:35;;;;;;;15.10;9.80;;;;;;;7.32;94.23;99582.95;435829;1277;211933;-63
2022/11/08 01:34:41;;;;;;;13.00;10.50;;;;;;;7.30;94.10;99582.85;435940;1283;142160;-63
2022/11/08 01:45:00;;;;;;;9.60;8.50;;;;;;;7.31;94.01;99587.69;435185;1283;142003;-63
2022/11/08 01:55:17;;;;;;;12.50;9.80;;;;;;;7.28;93.96;99583.98;436011;1283;142568;-63
2022/11/08 02:05:25;;;;;;;11.80;10.00;;;;;;;7.13;93.80;99578.33;436026;1283;141520;-64
2022/11/08 02:15:31;;;;;;;15.40;10.90;;;;;;;6.92;93.84;99571.85;435430;1283;213707;-64
2022/11/08 02:25:37;;;;;;;12.10;8.80;;;;;;;6.75;94.44;99565.38;436014;1287;143574;-64
2022/11/08 02:35:44;;;;;;;12.70;10.20;;;;;;;6.71;94.47;99565.71;435255;1291;142959;-64
2022/11/08 02:45:50;;;;;;;15.30;11.10;;;;;;;6.55;94.43;99567.19;436033;1277;142947;-64
2022/11/08 02:55:56;;;;;;;14.80;12.00;;;;;;;6.52;94.81;99562.64;436002;1291;143354;-64
2022/11/08 03:06:02;;;;;;;14.30;10.30;;;;;;;6.57;95.10;99556.98;435231;1288;142545;-64
2022/11/08 03:16:08;;;;;;;15.40;12.10;;;;;;;6.60;95.13;99567.45;435993;1283;142762;-64
2022/11/08 03:26:14;;;;;;;14.20;11.50;;;;;;;6.66;95.21;99577.98;435958;1284;142671;-64
2022/11/08 03:36:19;;;;;;;12.80;10.50;;;;;;;6.45;94.96;99575.30;435074;1285;145043;-63
2022/11/08 03:46:25;;;;;;;14.40;10.60;;;;;;;6.16;95.28;99574.91;436008;1284;143200;-65
2022/11/08 03:56:30;;;;;;;12.30;10.30;;;;;;;6.09;95.78;99580.41;435224;1277;197639;-65
2022/11/08 04:06:36;;;;;;;12.00;10.60;;;;;;;6.06;95.82;99586.30;436010;1281;143069;-65
2022/11/08 04:16:42;;;;;;;13.90;11.20;;;;;;;5.81;95.69;99583.39;435919;1284;143759;-63
2022/11/08 04:26:47;;;;;;;17.10;12.00;;;;;;;5.48;95.83;99584.60;435191;1284;143629;-63
2022/11/08 04:36:53;;;;;;;17.10;11.90;;;;;;;5.20;96.08;99584.23;435914;1290;143641;-63
2022/11/08 04:46:59;;;;;;;17.60;11.90;;;;;;;4.96;96.44;99579.48;436007;1284;143461;-65
2022/11/08 04:57:04;;;;;;;17.70;12.40;;;;;;;4.69;96.61;99578.84;435241;1283;143126;-63
2022/11/08 05:07:10;;;;;;;14.50;11.50;;;;;;;4.45;96.84;99587.03;435913;1278;143971;-64
2022/11/08 05:17:16;;;;;;;18.10;13.10;;;;;;;4.28;97.24;99589.94;435868;1289;141844;-64
2022/11/08 05:27:21;;;;;;;15.70;13.20;;;;;;;4.09;97.24;99595.32;435155;1283;144170;-64
2022/11/08 05:37:27;;;;;;;12.80;11.50;;;;;;;3.96;97.83;99603.95;435840;1284;142123;-64
2022/11/08 05:47:32;;;;;;;16.80;13.60;;;;;;;3.93;98.21;99606.14;435101;1281;143630;-64
2022/11/08 05:57:41;;;;;;;19.30;14.90;;;;;;;3.88;98.19;99603.71;436008;1277;142329;-64
2022/11/08 06:07:46;;;;;;;17.60;14.20;;;;;;;3.89;98.51;99606.45;435992;1284;142693;-65
2022/11/08 06:17:52;;;;;;;18.80;14.20;;;;;;;4.08;99.28;99613.55;435130;1283;142401;-64
2022/11/08 06:28:00;;;;;;;24.20;19.40;;;;;;;4.37;99.60;99612.33;435950;1285;142874;-64
2022/11/08 06:38:06;;;;;;;21.10;15.10;;;;;;;4.65;99.78;99613.33;435828;1283;143151;-64
2022/11/08 06:48:14;;;;;;;15.00;13.40;;;;;;;5.17;99.98;99620.95;435214;1290;143384;-63
2022/11/08 06:58:19;;;;;;;20.40;14.80;;;;;;;7.69;99.51;99623.02;435694;1281;142530;-64
2022/11/08 07:08:25;;;;;;;15.00;10.90;;;;;;;11.33;94.98;99614.06;435912;1284;143219;-64
2022/11/08 07:18:31;;;;;;;30.00;18.40;;;;;;;14.55;89.38;99610.84;435434;1283;145337;-64
2022/11/08 07:28:37;;;;;;;11.50;10.30;;;;;;;17.62;84.00;99601.65;435992;1281;152299;-63
2022/11/08 07:38:43;;;;;;;9.70;7.10;;;;;;;20.40;77.99;99604.67;435272;1283;142094;-63
2022/11/08 07:48:48;;;;;;;11.40;6.70;;;;;;;21.01;71.66;99609.67;436049;1288;141538;-63
2022/11/08 07:58:54;;;;;;;11.20;7.10;;;;;;;21.66;67.73;99613.07;436027;1291;145961;-63
2022/11/08 08:08:59;;;;;;;9.40;6.60;;;;;;;23.17;64.75;99617.52;435254;1291;144697;-63
2022/11/08 08:19:06;;;;;;;6.80;6.20;;;;;;;24.22;61.34;99609.90;436010;1289;142059;-63
2022/11/08 08:29:10;;;;;;;;;;;;;;;25.71;58.40;99604.60;436049;1289;143916;-63
2022/11/08 08:39:16;;;;;;;7.70;6.40;;;;;;;26.98;54.82;99596.79;435536;1289;129509;-63
2022/11/08 08:49:21;;;;;;;9.10;6.70;;;;;;;28.27;50.40;99598.58;436052;1289;141912;-62
2022/11/08 08:59:28;;;;;;;7.80;6.90;;;;;;;28.24;47.94;99589.89;436060;1284;141790;-63
2022/11/08 09:09:54;;;;;;;8.70;7.80;;;;;;;28.86;46.39;99588.52;435717;1283;143531;-64
2022/11/08 09:20:00;;;;;;;6.40;5.50;;;;;;;28.57;44.77;99587.24;436078;1284;142486;-64
2022/11/08 09:30:07;;;;;;;8.90;6.40;;;;;;;25.15;44.93;99590.00;435279;1286;141412;-64
2022/11/08 09:40:17;;;;;;;6.10;5.20;;;;;;;21.45;47.41;99588.15;435953;1283;142286;-64
2022/11/08 09:50:30;;;;;;;6.20;4.80;;;;;;;18.59;50.03;99585.13;436074;1284;142056;-63
2022/11/08 10:00:40;;;;;;;8.90;4.40;;;;;;;16.57;52.89;99592.27;435614;1290;141484;-64
2022/11/08 10:11:09;;;;;;;9.20;5.70;;;;;;;15.45;54.79;99588.05;436047;1285;143083;-65
2022/11/08 10:21:31;;;;;;;5.10;4.40;;;;;;;14.61;56.66;99579.44;435329;1286;142356;-64
2022/11/08 10:31:40;;;;;;;7.20;4.40;;;;;;;14.08;58.14;99577.86;436040;1283;143797;-64
2022/11/08 10:41:52;;;;;;;5.60;3.90;;;;;;;13.76;59.28;99575.89;435240;1285;141428;-64
2022/11/08 10:51:59;;;;;;;5.90;4.30;;;;;;;13.55;60.03;99562.20;435995;1291;141714;-64
2022/11/08 11:02:19;;;;;;;6.40;4.20;;;;;;;13.45;60.83;99561.38;436011;1276;141667;-65
2022/11/08 11:12:25;;;;;;;9.00;4.20;;;;;;;13.44;61.33;99558.27;435279;1284;145968;-63
2022/11/08 11:22:33;;;;;;;9.20;4.40;;;;;;;13.45;61.72;99542.23;436007;1283;141958;-64
2022/11/08 11:32:39;;;;;;;6.40;3.20;;;;;;;13.48;62.25;99542.15;435249;1283;143374;-64
2022/11/08 11:42:54;;;;;;;9.30;4.00;;;;;;;13.51;62.59;99545.82;436030;1283;141787;-67
2022/11/08 11:53:03;;;;;;;5.90;4.10;;;;;;;13.56;62.81;99536.29;436015;1277;142018;-67
2022/11/08 12:03:36;;;;;;;6.80;2.80;;;;;;;13.57;63.10;99533.41;435349;1285;142717;-66
2022/11/08 12:13:52;;;;;;;6.80;3.40;;;;;;;13.55;63.33;99527.71;436018;1287;144569;-64
2022/11/08 12:24:21;;;;;;;5.90;3.20;;;;;;;13.58;63.42;99517.15;435277;1284;144770;-64
2022/11/08 12:34:35;;;;;;;3.50;2.30;;;;;;;13.58;63.64;99511.86;435958;1290;142252;-63
2022/11/08 12:44:56;;;;;;;7.40;4.80;;;;;;;13.59;63.79;99501.20;435229;1285;140988;-64
2022/11/08 12:55:05;;;;;;;7.70;2.90;;;;;;;13.60;64.03;99496.73;435983;1284;142055;-64
2022/11/08 13:05:19;;;;;;;8.60;3.30;;;;;;;13.58;64.28;99505.88;436060;1278;141973;-65
2022/11/08 13:15:27;;;;;;;5.50;2.40;;;;;;;13.56;64.43;99501.83;435284;1289;142130;-64
2022/11/08 13:25:40;;;;;;;4.90;2.90;;;;;;;13.51;64.67;99496.23;435995;1277;141555;-65
2022/11/08 13:35:56;;;;;;;4.10;2.10;;;;;;;13.45;64.98;99481.34;421978;1280;142156;-64
2022/11/08 13:46:32;;;;;;;2.70;2.20;;;;;;;13.35;65.19;99477.91;435971;1283;142421;-64
2022/11/08 13:56:52;;;;;;;4.50;1.90;;;;;;;13.23;65.16;99473.69;435246;1284;142065;-63
2022/11/08 14:07:06;;;;;;;3.20;1.60;;;;;;;13.10;65.36;99476.30;435958;1283;141127;-65
2022/11/08 14:17:28;;;;;;;6.90;2.50;;;;;;;12.94;65.70;99476.08;433087;1283;141162;-63
2022/11/08 14:27:36;;;;;;;5.30;3.10;;;;;;;12.71;66.22;99473.10;435531;1283;142393;-63
2022/11/08 14:37:44;;;;;;;14.90;2.50;;;;;;;12.55;66.62;99468.10;435930;1283;141343;-63
2022/11/08 14:47:53;;;;;;;6.90;2.80;;;;;;;12.38;66.77;99465.30;435215;1277;142778;-66
2022/11/08 14:58:13;;;;;;;7.90;3.90;;;;;;;11.95;67.30;99462.41;435970;1282;142598;-64
2022/11/08 15:08:25;;;;;;;9.30;4.90;;;;;;;11.48;68.03;99466.50;436008;1284;142560;-64
2022/11/08 15:18:35;;;;;;;18.90;10.50;;;;;;;11.10;68.72;99467.04;435364;1283;144190;-64
2022/11/08 15:28:41;;;;;;;24.10;12.50;;;;;;;10.74;69.48;99458.77;435915;1283;143877;-64
2022/11/08 15:38:50;;;;;;;19.70;11.40;;;;;;;10.41;70.31;99454.06;435153;1278;143978;-63
2022/11/08 15:49:01;;;;;;;15.40;10.80;;;;;;;10.13;70.88;99452.17;435763;1284;142697;-63
2022/11/08 15:59:09;;;;;;;23.10;10.80;;;;;;;9.84;71.61;99454.36;435825;1283;142260;-64
2022/11/08 16:09:15;;;;;;;19.00;12.30;;;;;;;9.62;72.30;99462.52;435079;1283;145949;-63
2022/11/08 16:19:22;;;;;;;17.30;12.30;;;;;;;9.40;72.84;99461.57;435821;1285;142419;-63
2022/11/08 16:29:29;;;;;;;18.10;12.80;;;;;;;9.22;73.69;99465.33;435694;1283;142078;-63
2022/11/08 16:39:35;;;;;;;19.50;11.70;;;;;;;9.09;74.27;99466.04;435349;1283;213701;-64
2022/11/08 16:49:41;;;;;;;20.20;15.10;;;;;;;9.02;75.03;99469.77;435705;1277;142812;-63
2022/11/08 16:59:50;;;;;;;24.20;17.10;;;;;;;8.92;75.59;99470.73;435099;1283;142772;-63
2022/11/08 17:09:55;;;;;;;23.80;17.30;;;;;;;8.76;76.18;99471.32;436098;1284;148202;-63
2022/11/08 17:20:01;;;;;;;29.40;19.00;;;;;;;8.63;76.70;99470.66;436239;1281;143010;-64
2022/11/08 17:30:09;;;;;;;25.40;17.10;;;;;;;8.47;77.09;99464.90;435501;1283;144926;-64
2022/11/08 17:40:14;;;;;;;;;;;;;;;8.34;77.60;99470.66;436220;1283;142720;-64
2022/11/08 17:50:20;;;;;;;31.10;21.00;;;;;;;8.26;78.12;99476.05;436450;1277;129124;-64
2022/11/08 18:00:25;;;;;;;27.50;17.80;;;;;;;8.13;78.39;99475.16;435501;1275;142879;-64
2022/11/08 18:10:31;;;;;;;24.10;19.60;;;;;;;8.00;78.84;99478.85;436235;1283;151415;-63
2022/11/08 18:20:37;;;;;;;25.00;19.90;;;;;;;7.83;79.32;99473.82;435468;1284;145311;-63
2022/11/08 18:30:42;;;;;;;26.30;18.30;;;;;;;7.66;79.54;99477.88;436257;1277;142880;-62
2022/11/08 18:40:52;;;;;;;32.30;21.80;;;;;;;7.38;79.92;99475.18;436269;1283;142870;-63
2022/11/08 18:50:58;;;;;;;42.50;28.60;;;;;;;7.25;80.70;99474.09;435420;1284;143032;-63
2022/11/08 19:01:05;;;;;;;38.20;24.50;;;;;;;7.20;81.50;99469.30;435848;1276;144870;-63
2022/11/08 19:11:11;;;;;;;30.10;16.80;;;;;;;7.21;82.25;99462.11;436108;1284;142699;-62
2022/11/08 19:21:19;;;;;;;26.80;18.40;;;;;;;7.23;83.00;99462.56;435430;1281;143598;-63
2022/11/08 19:31:25;;;;;;;26.90;19.20;;;;;;;7.21;83.22;99472.91;436046;1282;196116;-62
2022/11/08 19:41:31;;;;;;;21.20;15.80;;;;;;;7.08;83.39;99478.14;435411;1283;143946;-63
2022/11/08 19:51:37;;;;;;;45.50;16.40;;;;;;;7.06;84.32;99475.63;431837;1284;142007;-62
2022/11/08 20:01:42;;;;;;;20.30;16.50;;;;;;;6.98;84.65;99476.55;419247;1285;146720;-63
2022/11/08 20:11:48;;;;;;;21.30;15.60;;;;;;;6.90;85.00;99464.95;435266;1284;198159;-64
2022/11/08 20:21:57;;;;;;;23.60;18.00;;;;;;;6.87;85.61;99458.83;436022;1275;142855;-63
2022/11/08 20:32:02;;;;;;;25.10;18.30;;;;;;;6.91;85.97;99456.52;435987;1281;141492;-64
2022/11/08 20:42:08;;;;;;;22.00;15.90;;;;;;;7.03;86.52;99451.38;435362;1280;143732;-63
2022/11/08 20:52:15;;;;;;;19.50;15.50;;;;;;;7.23;86.68;99440.80;436053;1284;143189;-62
2022/11/08 21:02:21;;;;;;;21.70;15.50;;;;;;;7.35;86.57;99446.41;436074;1285;145331;-67
2022/11/08 21:12:27;;;;;;;21.50;16.80;;;;;;;7.37;86.36;99447.33;431250;1277;144909;-64
2022/11/08 21:22:33;;;;;;;25.00;17.70;;;;;;;7.26;86.21;99445.50;435990;1290;141723;-64
2022/11/08 21:32:39;;;;;;;23.80;17.00;;;;;;;7.16;86.34;99439.91;435330;1280;145273;-64
2022/11/08 21:42:45;;;;;;;21.80;14.60;;;;;;;7.10;86.71;99444.93;436067;1284;143285;-63
2022/11/08 21:52:53;;;;;;;26.00;17.90;;;;;;;7.05;87.02;99444.86;436131;1284;142925;-63
2022/11/08 22:02:59;;;;;;;25.80;17.80;;;;;;;6.99;87.22;99441.14;435284;1281;142103;-63
2022/11/08 22:13:05;;;;;;;25.70;19.00;;;;;;;6.94;87.70;99432.69;436074;1280;143064;-63
2022/11/08 22:23:10;;;;;;;26.40;19.20;;;;;;;6.88;88.08;99422.20;436092;1277;142971;-63
2022/11/08 22:33:16;;;;;;;28.00;20.20;;;;;;;6.79;88.32;99416.40;428652;1290;142712;-64
2022/11/08 22:43:23;;;;;;;29.70;21.60;;;;;;;6.66;88.75;99423.50;427427;1281;142004;-63
2022/11/08 22:53:29;;;;;;;25.50;19.50;;;;;;;6.48;89.27;99426.82;435951;1287;142896;-63
2022/11/08 23:03:35;;;;;;;28.00;21.40;;;;;;;6.36;89.91;99429.13;435700;1281;196627;-64
2022/11/08 23:34:28;;;;;;;37.70;25.60;;;;;;;5.97;90.67;99426.47;436051;1286;143578;-63
2022/11/08 23:44:34;;;;;;;36.30;25.10;;;;;;;5.87;91.26;99420.13;435240;1285;191582;-62
2022/11/08 23:54:40;;;;;;;33.20;22.20;;;;;;;5.78;91.77;99412.91;436099;1284;145724;-62
